Terminal Aerodrome Forecast
Issued by NWS Knoxville/Tri Cities, TN

Home | Current Version | Previous Version | Text Only | Print | Product List | Glossary On
Versions: 1 2 3 4 5 6 7 8 9 10 11 12 13 14 15 16 17 18 19 20 21 22 23 24 25 26 27
000
FTUS44 KMRX 082308 AAA
TAFCHA
TAF AMD
KCHA 082308Z 0823/0918 27009KT P6SM VCSH OVC050
     FM090300 29008KT P6SM VCSH OVC040
     FM090500 30010KT P6SM -SHSN OVC030
     FM090900 31008KT 6SM -SHSN BR OVC020
     FM091700 28009KT P6SM OVC020=

USA.gov is the U.S. government's official web portal to all federal, state and local government web resources and services.